createdAt,value
2022-07-31T00:00:38.566Z,97464.78
2022-07-31T00:03:08.457Z,97467.53
2022-07-31T00:05:38.784Z,97465.19
2022-07-31T00:08:11.498Z,97466.72
2022-07-31T00:10:40.005Z,97473.78
2022-07-31T00:13:07.769Z,97475.75
2022-07-31T00:15:38.452Z,97467.91
2022-07-31T00:18:06.602Z,97469.09
2022-07-31T00:20:34.382Z,97467.53
2022-07-31T00:23:04.333Z,97466.34
2022-07-31T00:25:32.093Z,97464.38
2022-07-31T00:27:59.917Z,97456.53
2022-07-31T00:30:27.978Z,97461.22
2022-07-31T00:32:55.754Z,97458.50
2022-07-31T00:35:23.584Z,97465.19
2022-07-31T00:37:54.807Z,97457.31
2022-07-31T00:40:31.516Z,97461.63
2022-07-31T00:42:59.879Z,97462.78
2022-07-31T00:45:29.226Z,97469.09
2022-07-31T00:47:59.962Z,97469.47
2022-07-31T00:50:29.039Z,97458.88
2022-07-31T00:52:56.815Z,97463.56
2022-07-31T00:55:24.600Z,97456.91
2022-07-31T00:57:54.043Z,97462.00
2022-07-31T01:03:19.957Z,97463.59
2022-07-31T01:05:47.970Z,97462.03
2022-07-31T01:08:16.393Z,97470.66
2022-07-31T01:10:51.848Z,97462.03
2022-07-31T01:13:30.172Z,97464.34
2022-07-31T01:16:02.226Z,97467.50
2022-07-31T01:18:34.064Z,97465.94
2022-07-31T01:21:06.540Z,97457.31
2022-07-31T01:23:55.259Z,97457.31
2022-07-31T01:26:37.515Z,97453.00
2022-07-31T01:29:16.790Z,97455.75
2022-07-31T01:31:49.078Z,97460.06
2022-07-31T01:34:24.413Z,97436.94
2022-07-31T01:37:01.927Z,97446.34
2022-07-31T01:39:34.061Z,97448.31
2022-07-31T01:42:04.842Z,97439.28
2022-07-31T01:44:40.146Z,97438.50
2022-07-31T01:47:09.857Z,97445.97
2022-07-31T01:49:39.622Z,97448.31
2022-07-31T01:52:09.014Z,97440.84
2022-07-31T01:54:38.435Z,97438.88
2022-07-31T01:57:08.793Z,97436.91
2022-07-31T01:59:42.576Z,97431.03
2022-07-31T02:02:13.236Z,97432.22
2022-07-31T02:04:41.705Z,97429.06
2022-07-31T02:07:10.949Z,97421.25
2022-07-31T02:09:58.079Z,97422.44
2022-07-31T02:12:33.578Z,97414.19
2022-07-31T02:15:05.393Z,97425.16
2022-07-31T02:17:33.893Z,97426.75
2022-07-31T02:20:03.974Z,97418.13
2022-07-31T02:22:32.241Z,97418.09
2022-07-31T02:25:00.533Z,97407.91
2022-07-31T02:27:55.594Z,97407.91
2022-07-31T02:30:21.502Z,97410.63
2022-07-31T02:32:50.114Z,97413.03
2022-07-31T02:35:19.882Z,97409.06
2022-07-31T02:37:51.408Z,97406.72
2022-07-31T02:40:20.856Z,97402.81
2022-07-31T02:42:49.956Z,97402.81
2022-07-31T02:45:18.844Z,97403.97
2022-07-31T02:47:48.405Z,97400.47
2022-07-31T02:50:20.237Z,97407.13
2022-07-31T02:52:48.942Z,97400.84
2022-07-31T02:55:18.321Z,97400.06
2022-07-31T02:57:48.083Z,97400.47
2022-07-31T03:00:22.680Z,97401.63
2022-07-31T03:02:52.499Z,97396.91
2022-07-31T03:05:20.782Z,97402.03
2022-07-31T03:07:49.054Z,97403.56
2022-07-31T03:10:17.141Z,97403.97
2022-07-31T03:12:48.700Z,97392.22
2022-07-31T03:15:19.181Z,97400.47
2022-07-31T03:17:48.929Z,97400.47
2022-07-31T03:20:18.438Z,97395.34
2022-07-31T03:22:46.693Z,97393.41
2022-07-31T03:25:21.487Z,97392.22
2022-07-31T03:27:56.335Z,97393.41
2022-07-31T03:30:25.994Z,97391.06
2022-07-31T03:32:54.857Z,97388.31
2022-07-31T03:35:24.805Z,97385.16
2022-07-31T03:37:53.274Z,97384.00
2022-07-31T03:40:21.111Z,97382.41
2022-07-31T03:42:50.821Z,97384.75
2022-07-31T03:45:20.625Z,97384.00
2022-07-31T03:47:48.822Z,97390.25
2022-07-31T03:50:17.250Z,97379.66
2022-07-31T03:52:47.689Z,97384.75
2022-07-31T03:55:15.904Z,97392.97
2022-07-31T03:57:44.663Z,97390.25
2022-07-31T04:00:17.736Z,97392.22
2022-07-31T04:02:46.360Z,97390.25
2022-07-31T04:05:14.263Z,97398.47
2022-07-31T04:07:42.369Z,97398.47
2022-07-31T04:10:12.334Z,97397.69
2022-07-31T04:12:40.700Z,97400.44
2022-07-31T04:15:10.008Z,97400.84
2022-07-31T04:17:37.967Z,97405.53
2022-07-31T04:20:07.141Z,97408.66
2022-07-31T04:22:35.574Z,97418.06
2022-07-31T04:25:03.581Z,97407.84
2022-07-31T04:27:32.999Z,97419.97
2022-07-31T04:30:01.090Z,97415.66
2022-07-31T04:32:30.830Z,97423.53
2022-07-31T04:34:58.980Z,97424.72
2022-07-31T04:37:27.237Z,97431.78
2022-07-31T04:39:55.314Z,97429.78
2022-07-31T04:42:23.472Z,97447.88
2022-07-31T04:44:53.008Z,97440.00
2022-07-31T04:47:21.902Z,97445.50
2022-07-31T04:49:49.714Z,97443.09
2022-07-31T04:52:17.838Z,97445.91
2022-07-31T04:54:45.694Z,97449.75
2022-07-31T04:57:13.482Z,97452.88
2022-07-31T04:59:57.864Z,97450.94
2022-07-31T05:02:28.242Z,97451.69
2022-07-31T05:04:57.368Z,97460.28
2022-07-31T05:07:26.699Z,97461.03
2022-07-31T05:09:57.204Z,97464.16
2022-07-31T05:12:25.150Z,97460.28
2022-07-31T05:14:53.433Z,97465.00
2022-07-31T05:17:21.590Z,97469.63
2022-07-31T05:19:50.974Z,97469.63
2022-07-31T05:22:18.858Z,97476.31
2022-07-31T05:24:47.255Z,97473.56
2022-07-31T05:27:15.109Z,97479.03
2022-07-31T05:29:42.882Z,97469.59
2022-07-31T05:32:10.961Z,97478.25
2022-07-31T05:34:39.425Z,97483.34
2022-07-31T05:37:08.626Z,97490.81
2022-07-31T05:39:37.014Z,97491.19
2022-07-31T05:42:05.483Z,97491.59
2022-07-31T05:44:33.661Z,97493.94
2022-07-31T05:47:01.751Z,97495.13
2022-07-31T05:49:30.639Z,97496.28
2022-07-31T05:51:58.432Z,97496.31
2022-07-31T05:54:27.868Z,97493.94
2022-07-31T05:56:55.686Z,97500.19
2022-07-31T05:59:23.855Z,97500.22
2022-07-31T06:01:52.521Z,97498.56
2022-07-31T06:04:20.441Z,97500.91
2022-07-31T06:06:48.162Z,97502.50
2022-07-31T06:09:16.147Z,97509.13
2022-07-31T06:11:45.410Z,97503.69
2022-07-31T06:14:13.146Z,97513.06
2022-07-31T06:16:41.225Z,97504.06
2022-07-31T06:19:09.167Z,97515.00
2022-07-31T06:21:36.947Z,97509.91
2022-07-31T06:24:05.815Z,97510.25
2022-07-31T06:26:35.528Z,97519.63
2022-07-31T06:29:04.722Z,97510.22
2022-07-31T06:31:32.774Z,97501.66
2022-07-31T06:34:00.637Z,97505.19
2022-07-31T06:36:28.517Z,97510.69
2022-07-31T06:38:56.650Z,97508.31
2022-07-31T06:41:42.229Z,97506.34
2022-07-31T06:44:11.813Z,97516.22
2022-07-31T06:46:39.758Z,97508.41
2022-07-31T06:49:17.518Z,97522.09
2022-07-31T06:51:45.941Z,97518.94
2022-07-31T06:54:13.733Z,97515.78
2022-07-31T06:56:41.961Z,97519.28
2022-07-31T06:59:11.762Z,97530.63
2022-07-31T07:01:39.570Z,97528.69
2022-07-31T07:04:07.692Z,97532.19
2022-07-31T07:06:35.686Z,97527.50
2022-07-31T07:09:03.473Z,97542.31
2022-07-31T07:11:31.380Z,97534.00
2022-07-31T07:13:59.398Z,97537.88
2022-07-31T07:16:28.543Z,97544.16
2022-07-31T07:18:56.593Z,97546.47
2022-07-31T07:21:24.752Z,97544.56
2022-07-31T07:23:52.487Z,97551.16
2022-07-31T07:26:20.766Z,97554.75
2022-07-31T07:28:48.689Z,97542.16
2022-07-31T07:31:16.465Z,97545.31
2022-07-31T07:33:47.767Z,97543.34
2022-07-31T07:36:22.985Z,97552.72
2022-07-31T07:38:55.192Z,97556.25
2022-07-31T07:41:24.314Z,97552.00
2022-07-31T07:43:52.712Z,97550.78
2022-07-31T07:46:21.620Z,97555.88
2022-07-31T07:48:51.720Z,97564.13
2022-07-31T07:51:20.663Z,97550.66
2022-07-31T07:53:48.750Z,97568.03
2022-07-31T07:56:16.802Z,97568.84
2022-07-31T07:58:44.646Z,97572.03
2022-07-31T08:01:12.979Z,97567.28
2022-07-31T08:03:49.213Z,97570.31
2022-07-31T08:06:22.521Z,97574.25
2022-07-31T08:08:50.481Z,97584.47
2022-07-31T08:11:18.336Z,97591.47
2022-07-31T08:13:50.620Z,97590.72
2022-07-31T08:16:19.815Z,97588.38
2022-07-31T08:18:47.834Z,97593.47
2022-07-31T08:21:15.653Z,97601.69
2022-07-31T08:23:44.914Z,97599.25
2022-07-31T08:26:13.102Z,97596.16
2022-07-31T08:28:49.933Z,97610.97
2022-07-31T08:31:18.692Z,97601.63
2022-07-31T08:33:46.421Z,97606.31
2022-07-31T08:36:14.205Z,97609.41
2022-07-31T08:38:42.474Z,97605.47
2022-07-31T08:41:13.740Z,97606.97
2022-07-31T08:44:02.539Z,97603.06
2022-07-31T08:46:30.515Z,97603.94
2022-07-31T08:48:59.180Z,97604.25
2022-07-31T08:51:27.528Z,97599.19
2022-07-31T08:53:56.745Z,97608.59
2022-07-31T08:56:26.641Z,97612.50
2022-07-31T08:58:56.935Z,97615.69
2022-07-31T09:01:25.394Z,97609.06
2022-07-31T09:03:54.074Z,97610.91
2022-07-31T09:06:21.921Z,97608.53
2022-07-31T09:08:50.083Z,97614.81
2022-07-31T09:11:18.636Z,97615.44
2022-07-31T09:14:02.633Z,97615.09
2022-07-31T09:16:32.072Z,97611.56
2022-07-31T09:19:01.480Z,97620.22
2022-07-31T09:21:40.042Z,97615.59
2022-07-31T09:24:10.161Z,97624.94
2022-07-31T09:26:40.819Z,97623.41
2022-07-31T09:29:11.928Z,97624.34
2022-07-31T09:31:40.445Z,97623.81
2022-07-31T09:34:08.251Z,97623.75
2022-07-31T09:36:36.270Z,97627.28
2022-07-31T09:39:14.343Z,97624.91
2022-07-31T09:41:57.843Z,97634.44
2022-07-31T09:44:42.251Z,97620.78
2022-07-31T09:47:21.831Z,97628.06
2022-07-31T09:49:55.511Z,97628.72
2022-07-31T09:52:24.179Z,97635.09
2022-07-31T09:55:02.835Z,97634.19
2022-07-31T09:57:52.760Z,97632.94
2022-07-31T10:00:23.301Z,97637.44
2022-07-31T10:02:53.810Z,97642.91
2022-07-31T10:05:23.753Z,97640.66
2022-07-31T10:07:52.403Z,97633.56
2022-07-31T10:10:23.290Z,97632.03
2022-07-31T10:12:55.100Z,97642.25
2022-07-31T10:15:24.608Z,97645.31
2022-07-31T10:17:53.642Z,97638.31
2022-07-31T10:20:23.811Z,97652.44
2022-07-31T10:22:57.226Z,97652.91
2022-07-31T10:25:28.439Z,97654.84
2022-07-31T10:27:57.779Z,97658.00
2022-07-31T10:30:28.333Z,97654.84
2022-07-31T10:32:58.541Z,97654.88
2022-07-31T10:35:26.861Z,97655.34
2022-07-31T10:38:01.815Z,97658.09
2022-07-31T10:40:36.973Z,97662.78
2022-07-31T10:43:19.874Z,97664.25
2022-07-31T10:45:50.627Z,97668.25
2022-07-31T10:48:21.927Z,97666.06
2022-07-31T10:51:01.453Z,97667.56
2022-07-31T10:53:50.005Z,97661.34
2022-07-31T10:56:18.546Z,97668.47
2022-07-31T10:58:49.289Z,97676.97
2022-07-31T11:01:18.756Z,97671.56
2022-07-31T11:03:48.392Z,97675.22
2022-07-31T11:06:18.147Z,97680.69
2022-07-31T11:08:47.782Z,97672.50
2022-07-31T11:11:16.742Z,97672.03
2022-07-31T11:13:51.345Z,97683.41
2022-07-31T11:16:20.949Z,97694.75
2022-07-31T11:18:58.421Z,97680.31
2022-07-31T11:21:39.621Z,97670.84
2022-07-31T11:24:15.752Z,97687.31
2022-07-31T11:26:50.437Z,97679.63
2022-07-31T11:29:59.846Z,97681.22
2022-07-31T11:32:25.162Z,97680.47
2022-07-31T11:34:56.307Z,97683.09
2022-07-31T11:37:26.252Z,97681.97
2022-07-31T11:40:01.865Z,97680.47
2022-07-31T11:42:34.546Z,97687.81
2022-07-31T11:45:11.011Z,97678.91
2022-07-31T11:48:10.199Z,97678.00
2022-07-31T11:50:32.292Z,97682.41
2022-07-31T11:53:04.283Z,97673.81
2022-07-31T11:55:33.016Z,97683.22
2022-07-31T11:58:00.972Z,97676.50
2022-07-31T12:00:30.138Z,97692.16
2022-07-31T12:02:59.843Z,97688.22
2022-07-31T12:05:38.801Z,97657.53
2022-07-31T12:08:09.155Z,97697.91
2022-07-31T12:10:37.801Z,97689.69
2022-07-31T12:13:06.006Z,97699.91
2022-07-31T12:15:34.156Z,97695.91
2022-07-31T12:18:06.024Z,97697.16
2022-07-31T12:20:36.487Z,97704.66
2022-07-31T12:23:06.822Z,97693.75
2022-07-31T12:25:42.111Z,97703.94
2022-07-31T12:28:10.992Z,97702.44
2022-07-31T12:30:38.802Z,97699.31
2022-07-31T12:33:09.480Z,97700.13
2022-07-31T12:35:56.334Z,97702.31
2022-07-31T12:38:45.020Z,97707.47
2022-07-31T12:41:14.743Z,97710.91
2022-07-31T12:43:51.050Z,97707.78
2022-07-31T12:46:34.806Z,97713.72
2022-07-31T12:49:04.624Z,97698.50
2022-07-31T12:51:44.836Z,97705.91
2022-07-31T12:54:15.884Z,97712.47
2022-07-31T12:56:44.959Z,97705.41
2022-07-31T12:59:13.153Z,97704.13
2022-07-31T13:01:41.073Z,97702.97
2022-07-31T13:04:18.184Z,97705.31
2022-07-31T13:06:48.719Z,97695.88
2022-07-31T13:09:17.114Z,97699.78
2022-07-31T13:11:48.586Z,97696.69
2022-07-31T13:14:17.346Z,97705.25
2022-07-31T13:16:45.986Z,97703.31
2022-07-31T13:19:15.633Z,97701.41
2022-07-31T13:21:49.336Z,97701.38
2022-07-31T13:24:19.512Z,97701.41
2022-07-31T13:26:48.188Z,97702.88
2022-07-31T13:29:16.353Z,97706.81
2022-07-31T13:31:44.517Z,97703.63
2022-07-31T13:34:12.691Z,97706.06
2022-07-31T13:36:41.889Z,97702.53
2022-07-31T13:39:10.666Z,97700.19
2022-07-31T13:41:39.548Z,97704.88
2022-07-31T13:44:08.011Z,97704.16
2022-07-31T13:46:36.923Z,97706.06
2022-07-31T13:49:08.340Z,97713.06
2022-07-31T13:51:36.986Z,97719.38
2022-07-31T13:54:06.658Z,97707.59
2022-07-31T13:56:42.155Z,97709.25
2022-07-31T13:59:11.688Z,97711.50
2022-07-31T14:02:03.325Z,97713.91
2022-07-31T14:04:32.107Z,97713.97
2022-07-31T14:07:03.213Z,97711.59
2022-07-31T14:09:35.853Z,97713.13
2022-07-31T14:12:04.341Z,97709.28
2022-07-31T14:14:33.307Z,97714.78
2022-07-31T14:17:01.531Z,97716.22
2022-07-31T14:19:29.297Z,97713.06
2022-07-31T14:21:58.361Z,97715.50
2022-07-31T14:24:26.584Z,97715.50
2022-07-31T14:26:56.093Z,97721.00
2022-07-31T14:29:24.138Z,97717.00
2022-07-31T14:31:51.882Z,97722.91
2022-07-31T14:34:19.706Z,97725.34
2022-07-31T14:36:47.763Z,97722.63
2022-07-31T14:39:15.556Z,97721.75
2022-07-31T14:41:43.741Z,97726.44
2022-07-31T14:44:18.339Z,97726.44
2022-07-31T14:46:50.071Z,97733.19
2022-07-31T14:49:18.270Z,97730.19
2022-07-31T14:51:46.400Z,97732.81
2022-07-31T14:54:14.178Z,97734.38
2022-07-31T14:59:31.648Z,97737.59
2022-07-31T15:02:00.386Z,97743.50
2022-07-31T15:04:28.134Z,97741.50
2022-07-31T15:07:07.809Z,97743.16
2022-07-31T15:09:43.937Z,97745.09
2022-07-31T15:12:13.320Z,97741.13
2022-07-31T15:14:42.410Z,97742.38
2022-07-31T15:17:11.070Z,97736.50
2022-07-31T15:19:38.918Z,97739.63
2022-07-31T15:22:15.451Z,97746.28
2022-07-31T15:24:49.229Z,97743.97
2022-07-31T15:27:18.852Z,97745.59
2022-07-31T15:30:05.866Z,97743.56
2022-07-31T15:32:37.039Z,97744.41
2022-07-31T15:35:06.745Z,97748.00
2022-07-31T15:37:36.258Z,97734.66
2022-07-31T15:40:07.104Z,97748.41
2022-07-31T15:42:38.358Z,97747.25
2022-07-31T15:45:09.562Z,97753.94
2022-07-31T15:47:37.717Z,97751.19
2022-07-31T15:50:07.031Z,97755.47
2022-07-31T15:52:34.876Z,97751.16
2022-07-31T15:55:03.298Z,97760.59
2022-07-31T15:57:31.249Z,97756.63
2022-07-31T15:59:59.364Z,97752.72
2022-07-31T16:02:28.862Z,97763.25
2022-07-31T16:05:02.611Z,97757.38
2022-07-31T16:08:30.038Z,97753.44
2022-07-31T16:10:28.463Z,97753.91
2022-07-31T16:12:56.706Z,97750.00
2022-07-31T16:15:26.377Z,97756.63
2022-07-31T16:17:55.646Z,97758.22
2022-07-31T16:20:26.141Z,97758.59
2022-07-31T16:22:56.563Z,97753.53
2022-07-31T16:25:25.875Z,97756.63
2022-07-31T16:27:53.866Z,97750.72
2022-07-31T16:30:22.078Z,97755.09
2022-07-31T16:32:51.437Z,97761.28
2022-07-31T16:35:20.517Z,97762.88
2022-07-31T16:37:50.928Z,97758.91
2022-07-31T16:40:28.702Z,97755.44
2022-07-31T16:43:01.938Z,97761.28
2022-07-31T16:45:30.783Z,97763.28
2022-07-31T16:47:58.754Z,97759.75
2022-07-31T16:50:28.211Z,97766.75
2022-07-31T16:52:56.466Z,97765.63
2022-07-31T16:56:01.080Z,97763.19
2022-07-31T16:58:14.026Z,97774.25
2022-07-31T17:00:41.896Z,97768.31
2022-07-31T17:03:58.731Z,97778.09
2022-07-31T17:05:59.489Z,97776.19
2022-07-31T17:08:28.795Z,97779.75
2022-07-31T17:10:56.610Z,97780.94
2022-07-31T17:13:24.795Z,97784.88
2022-07-31T17:15:52.613Z,97779.78
2022-07-31T17:18:24.923Z,97786.88
2022-07-31T17:20:56.137Z,97791.59
2022-07-31T17:23:43.160Z,97784.56
2022-07-31T17:26:21.243Z,97782.56
2022-07-31T17:28:50.076Z,97789.28
2022-07-31T17:31:18.389Z,97789.94
2022-07-31T17:33:58.507Z,97783.72
2022-07-31T17:36:29.295Z,97792.75
2022-07-31T17:38:58.928Z,97788.44
2022-07-31T17:41:26.876Z,97794.34
2022-07-31T17:43:55.601Z,97787.25
2022-07-31T17:46:34.430Z,97786.47
2022-07-31T17:49:04.819Z,97788.81
2022-07-31T17:51:33.045Z,97792.41
2022-07-31T17:54:02.326Z,97797.88
2022-07-31T17:56:30.660Z,97798.34
2022-07-31T17:59:04.354Z,97805.44
2022-07-31T18:01:34.555Z,97792.44
2022-07-31T18:04:03.280Z,97797.59
2022-07-31T18:06:31.353Z,97794.44
2022-07-31T18:09:00.605Z,97792.91
2022-07-31T18:11:29.689Z,97800.66
2022-07-31T18:14:01.130Z,97799.19
2022-07-31T18:16:33.825Z,97796.81
2022-07-31T18:19:01.613Z,97792.50
2022-07-31T18:21:31.643Z,97793.69
2022-07-31T18:24:05.051Z,97795.25
2022-07-31T18:26:35.984Z,97805.47
2022-07-31T18:29:04.782Z,97801.94
2022-07-31T18:31:35.352Z,97798.44
2022-07-31T18:34:04.573Z,97803.94
2022-07-31T18:36:32.766Z,97809.44
2022-07-31T18:39:00.942Z,97806.31
2022-07-31T18:41:29.587Z,97808.22
2022-07-31T18:43:59.407Z,97807.81
2022-07-31T18:46:27.526Z,97813.34
2022-07-31T18:48:56.639Z,97815.66
2022-07-31T18:51:25.630Z,97816.50
2022-07-31T18:53:55.207Z,97812.97
2022-07-31T18:56:24.265Z,97813.41
2022-07-31T18:58:52.733Z,97811.81
2022-07-31T19:01:23.445Z,97812.59
2022-07-31T19:03:52.208Z,97810.59
2022-07-31T19:06:20.772Z,97818.50
2022-07-31T19:08:49.589Z,97825.56
2022-07-31T19:11:17.641Z,97823.66
2022-07-31T19:13:45.989Z,97823.66
2022-07-31T19:16:15.041Z,97824.47
2022-07-31T19:18:49.307Z,97827.59
2022-07-31T19:21:41.319Z,97824.44
2022-07-31T19:24:08.602Z,97824.81
2022-07-31T19:26:37.383Z,97815.72
2022-07-31T19:29:05.331Z,97831.06
2022-07-31T19:31:33.201Z,97829.88
2022-07-31T19:34:02.697Z,97828.78
2022-07-31T19:36:30.438Z,97825.19
2022-07-31T19:38:58.289Z,97829.16
2022-07-31T19:41:26.691Z,97824.47
2022-07-31T19:43:54.476Z,97831.47
2022-07-31T19:46:22.399Z,97829.88
2022-07-31T19:48:50.791Z,97836.16
2022-07-31T19:51:19.913Z,97831.84
2022-07-31T19:53:47.814Z,97833.44
2022-07-31T19:56:20.808Z,97833.81
2022-07-31T19:58:49.918Z,97832.25
2022-07-31T20:01:20.306Z,97829.91
2022-07-31T20:03:49.228Z,97825.97
2022-07-31T20:06:17.289Z,97825.16
2022-07-31T20:08:47.041Z,97833.84
2022-07-31T20:11:14.845Z,97829.94
2022-07-31T20:13:43.377Z,97829.94
2022-07-31T20:16:11.470Z,97828.41
2022-07-31T20:18:39.391Z,97826.03
2022-07-31T20:21:09.606Z,97837.81
2022-07-31T20:23:39.107Z,97836.25
2022-07-31T20:26:09.866Z,97837.81
2022-07-31T20:28:40.073Z,97840.97
2022-07-31T20:31:15.996Z,97841.72
2022-07-31T20:33:56.708Z,97832.72
2022-07-31T20:36:27.154Z,97844.50
2022-07-31T20:38:55.224Z,97838.16
2022-07-31T20:41:24.651Z,97842.47
2022-07-31T20:43:52.950Z,97842.50
2022-07-31T20:46:20.774Z,97837.00
2022-07-31T20:48:49.907Z,97844.88
2022-07-31T20:51:20.464Z,97838.59
2022-07-31T20:53:49.125Z,97842.91
2022-07-31T20:56:17.391Z,97841.66
2022-07-31T20:58:51.653Z,97840.06
2022-07-31T21:01:21.229Z,97842.88
2022-07-31T21:03:49.935Z,97846.03
2022-07-31T21:06:17.701Z,97836.22
2022-07-31T21:08:45.790Z,97839.03
2022-07-31T21:11:13.877Z,97838.97
2022-07-31T21:13:43.129Z,97837.81
2022-07-31T21:16:12.694Z,97837.78
2022-07-31T21:18:43.206Z,97836.97
2022-07-31T21:21:11.784Z,97829.88
2022-07-31T21:23:39.992Z,97836.94
2022-07-31T21:26:08.700Z,97842.44
2022-07-31T21:28:37.315Z,97837.34
2022-07-31T21:31:05.558Z,97839.28
2022-07-31T21:33:35.578Z,97838.50
2022-07-31T21:36:05.811Z,97850.25
2022-07-31T21:38:35.777Z,97849.91
2022-07-31T21:41:04.251Z,97849.50
2022-07-31T21:43:58.101Z,97846.38
2022-07-31T21:46:23.612Z,97843.97
2022-07-31T21:48:53.622Z,97848.78
2022-07-31T21:51:22.401Z,97851.13
2022-07-31T21:53:50.136Z,97846.44
2022-07-31T21:56:17.934Z,97851.94
2022-07-31T21:58:46.179Z,97849.59
2022-07-31T22:01:15.134Z,97844.09
2022-07-31T22:03:43.153Z,97846.44
2022-07-31T22:06:30.493Z,97846.47
2022-07-31T22:08:58.258Z,97845.69
2022-07-31T22:11:26.616Z,97849.56
2022-07-31T22:13:54.378Z,97855.09
2022-07-31T22:16:22.111Z,97848.78
2022-07-31T22:18:51.797Z,97846.47
2022-07-31T22:21:21.374Z,97854.69
2022-07-31T22:23:49.516Z,97842.09
2022-07-31T22:26:18.157Z,97856.28
2022-07-31T22:28:47.825Z,97860.56
2022-07-31T22:31:16.102Z,97857.38
2022-07-31T22:33:44.641Z,97850.38
2022-07-31T22:36:13.162Z,97856.59
2022-07-31T22:38:44.048Z,97861.28
2022-07-31T22:41:13.213Z,97856.16
2022-07-31T22:44:12.152Z,97855.78
2022-07-31T22:46:32.508Z,97855.78
2022-07-31T22:49:03.131Z,97853.47
2022-07-31T22:51:35.480Z,97859.28
2022-07-31T22:54:07.418Z,97852.59
2022-07-31T22:56:35.619Z,97859.72
2022-07-31T22:59:03.390Z,97857.38
2022-07-31T23:01:31.186Z,97858.56
2022-07-31T23:03:59.305Z,97862.44
2022-07-31T23:06:30.986Z,97862.81
2022-07-31T23:09:01.715Z,97864.41
2022-07-31T23:11:30.984Z,97855.75
2022-07-31T23:13:58.855Z,97861.25
2022-07-31T23:16:27.538Z,97862.03
2022-07-31T23:18:55.602Z,97864.34
2022-07-31T23:21:23.733Z,97859.28
2022-07-31T23:23:52.189Z,97864.41
2022-07-31T23:26:20.553Z,97854.13
2022-07-31T23:28:49.801Z,97863.97
2022-07-31T23:31:18.303Z,97862.00
2022-07-31T23:33:47.990Z,97856.50
2022-07-31T23:36:16.594Z,97862.75
2022-07-31T23:38:45.591Z,97858.06
2022-07-31T23:41:14.156Z,97858.91
2022-07-31T23:43:41.852Z,97869.03
2022-07-31T23:46:27.010Z,97864.28
2022-07-31T23:48:55.826Z,97863.53
2022-07-31T23:51:24.197Z,97854.88
2022-07-31T23:53:52.181Z,97869.38
2022-07-31T23:56:20.117Z,97856.03
2022-07-31T23:58:48.198Z,97863.47
